createdAt,value
2022-10-03T00:01:44.385Z,1.65
2022-10-03T00:04:17.822Z,1.73
2022-10-03T00:06:56.108Z,2.00
2022-10-03T00:09:32.707Z,1.60
2022-10-03T00:11:55.225Z,1.50
2022-10-03T00:14:48.364Z,1.50
2022-10-03T00:17:27.548Z,1.80
2022-10-03T00:20:08.221Z,1.87
2022-10-03T00:22:49.577Z,1.60
2022-10-03T00:25:24.199Z,1.60
2022-10-03T00:28:10.397Z,1.50
2022-10-03T00:31:11.227Z,1.48
2022-10-03T00:33:49.268Z,1.47
2022-10-03T00:36:35.143Z,1.60
2022-10-03T00:39:15.049Z,1.60
2022-10-03T00:41:43.427Z,1.58
2022-10-03T00:44:43.940Z,1.50
2022-10-03T00:47:21.443Z,1.90
2022-10-03T00:50:07.516Z,1.45
2022-10-03T00:52:55.536Z,1.50
2022-10-03T00:55:35.716Z,1.58
2022-10-03T00:58:22.969Z,1.40
2022-10-03T01:00:51.513Z,1.60
2022-10-03T01:03:38.374Z,1.40
2022-10-03T01:06:16.458Z,1.45
2022-10-03T01:09:29.444Z,1.45
2022-10-03T01:12:22.889Z,1.30
2022-10-03T01:14:49.259Z,1.40
2022-10-03T01:17:19.805Z,1.60
2022-10-03T01:20:10.364Z,1.70
2022-10-03T01:22:57.241Z,1.67
2022-10-03T01:25:25.802Z,1.30
2022-10-03T01:28:44.798Z,1.50
2022-10-03T01:31:10.392Z,1.42
2022-10-03T01:33:42.039Z,1.60
2022-10-03T01:36:13.084Z,1.48
2022-10-03T01:38:55.224Z,1.58
2022-10-03T01:41:33.708Z,1.53
2022-10-03T01:44:16.460Z,1.60
2022-10-03T01:46:42.772Z,1.75
2022-10-03T01:49:18.014Z,1.58
2022-10-03T01:52:10.179Z,1.90
2022-10-03T01:55:00.327Z,1.60
2022-10-03T01:57:35.629Z,2.00
2022-10-03T02:00:17.809Z,1.75
2022-10-03T02:03:00.937Z,1.90
2022-10-03T02:05:41.469Z,1.85
2022-10-03T02:08:25.366Z,1.80
2022-10-03T02:10:55.848Z,2.28
2022-10-03T02:13:27.577Z,2.10
2022-10-03T02:16:04.746Z,1.70
2022-10-03T02:18:39.431Z,2.10
2022-10-03T02:21:17.665Z,1.70
2022-10-03T02:23:44.225Z,1.70
2022-10-03T02:26:28.341Z,1.58
2022-10-03T02:29:09.049Z,1.90
2022-10-03T02:31:50.428Z,1.90
2022-10-03T02:34:34.488Z,1.90
2022-10-03T02:36:59.751Z,2.20
2022-10-03T02:39:23.028Z,2.00
2022-10-03T02:41:57.557Z,2.17
2022-10-03T02:44:46.363Z,2.13
2022-10-03T02:47:14.809Z,2.00
2022-10-03T02:50:04.910Z,2.35
2022-10-03T02:52:58.140Z,2.40
2022-10-03T02:55:41.616Z,2.28
2022-10-03T02:58:16.310Z,2.22
2022-10-03T03:01:15.841Z,1.97
2022-10-03T03:04:01.562Z,2.00
2022-10-03T03:06:53.159Z,2.13
2022-10-03T03:09:38.324Z,1.90
2022-10-03T03:12:41.589Z,2.10
2022-10-03T03:15:33.384Z,2.10
2022-10-03T03:17:56.912Z,1.98
2022-10-03T03:20:52.380Z,2.13
2022-10-03T03:23:36.235Z,2.00
2022-10-03T03:26:07.589Z,2.45
2022-10-03T03:28:42.876Z,2.37
2022-10-03T03:31:12.845Z,2.38
2022-10-03T03:34:09.454Z,2.13
2022-10-03T03:36:54.318Z,2.10
2022-10-03T03:39:34.924Z,2.20
2022-10-03T03:42:19.006Z,2.10
2022-10-03T03:44:57.359Z,2.30
2022-10-03T03:47:54.532Z,2.42
2022-10-03T03:50:52.597Z,2.05
2022-10-03T03:53:30.050Z,2.40
2022-10-03T03:56:17.533Z,2.43
2022-10-03T03:59:00.607Z,2.10
2022-10-03T04:01:32.182Z,2.40
2022-10-03T04:04:20.147Z,2.30
2022-10-03T04:07:25.263Z,2.55
2022-10-03T04:10:06.382Z,2.50
2022-10-03T04:12:31.963Z,2.70
2022-10-03T04:15:32.291Z,2.85
2022-10-03T04:18:43.688Z,2.75
2022-10-03T04:21:07.194Z,2.67
2022-10-03T04:24:06.992Z,2.90
2022-10-03T04:26:38.809Z,2.80
2022-10-03T04:29:22.332Z,2.83
2022-10-03T04:31:54.868Z,2.95
2022-10-03T04:34:30.095Z,2.95
2022-10-03T04:36:52.592Z,2.80
2022-10-03T04:39:50.380Z,2.97
2022-10-03T04:42:44.963Z,3.20
2022-10-03T04:45:44.543Z,3.05
2022-10-03T04:48:18.947Z,3.15
2022-10-03T04:51:13.641Z,3.23
2022-10-03T04:54:02.376Z,3.20
2022-10-03T04:56:27.493Z,3.38
2022-10-03T04:59:27.248Z,3.17
2022-10-03T05:02:03.313Z,3.22
2022-10-03T05:04:29.927Z,3.07
2022-10-03T05:07:30.191Z,3.20
2022-10-03T05:10:09.224Z,3.05
2022-10-03T05:13:02.087Z,3.10
2022-10-03T05:15:33.944Z,3.10
2022-10-03T05:18:14.791Z,3.30
2022-10-03T05:21:05.427Z,3.30
2022-10-03T05:23:40.918Z,2.60
2022-10-03T05:26:44.570Z,3.25
2022-10-03T05:29:17.657Z,3.33
2022-10-03T05:31:50.079Z,2.90
2022-10-03T05:34:18.552Z,3.17
2022-10-03T05:37:02.737Z,3.05
2022-10-03T05:39:29.527Z,3.35
2022-10-03T05:42:23.247Z,3.30
2022-10-03T05:44:50.204Z,2.97
2022-10-03T05:47:46.208Z,2.90
2022-10-03T05:50:29.054Z,3.33
2022-10-03T05:53:11.222Z,2.97
2022-10-03T05:55:42.816Z,3.00
2022-10-03T05:58:23.554Z,3.03
2022-10-03T06:00:58.498Z,2.72
2022-10-03T06:03:46.344Z,2.85
2022-10-03T06:06:36.698Z,2.47
2022-10-03T06:09:02.487Z,2.40
2022-10-03T06:12:04.146Z,2.57
2022-10-03T06:14:30.104Z,2.55
2022-10-03T06:17:15.377Z,2.60
2022-10-03T06:19:58.228Z,2.50
2022-10-03T06:23:04.921Z,2.90
2022-10-03T06:25:28.458Z,2.40
2022-10-03T06:28:28.563Z,2.50
2022-10-03T06:31:11.562Z,2.40
2022-10-03T06:34:12.379Z,2.00
2022-10-03T06:37:12.637Z,2.70
2022-10-03T06:40:10.717Z,3.10
2022-10-03T06:42:49.179Z,3.03
2022-10-03T06:45:34.162Z,2.88
2022-10-03T06:48:17.999Z,2.28
2022-10-03T06:51:26.051Z,2.40
2022-10-03T06:54:09.451Z,2.30
2022-10-03T06:57:02.119Z,2.30
2022-10-03T06:59:30.751Z,2.30
2022-10-03T07:01:56.158Z,2.10
2022-10-03T07:04:58.490Z,2.17
2022-10-03T07:07:39.373Z,2.13
2022-10-03T07:10:23.175Z,2.20
2022-10-03T07:13:09.913Z,2.10
2022-10-03T07:16:27.199Z,2.22
2022-10-03T07:19:22.032Z,2.00
2022-10-03T07:22:10.681Z,2.40
2022-10-03T07:24:54.302Z,3.90
2022-10-03T07:27:36.530Z,2.70
2022-10-03T07:30:19.492Z,2.20
2022-10-03T07:33:16.528Z,2.30
2022-10-03T07:36:25.158Z,2.10
2022-10-03T07:39:09.935Z,2.15
2022-10-03T07:41:44.325Z,2.33
2022-10-03T07:44:47.147Z,2.20
2022-10-03T07:47:40.670Z,2.25
2022-10-03T07:50:41.199Z,2.17
2022-10-03T07:53:35.715Z,3.10
2022-10-03T07:56:29.468Z,2.00
2022-10-03T07:59:04.387Z,2.08
2022-10-03T08:01:54.724Z,2.03
2022-10-03T08:05:01.867Z,1.90
2022-10-03T08:07:32.460Z,1.80
2022-10-03T08:10:31.091Z,2.00
2022-10-03T08:13:42.960Z,1.70
2022-10-03T08:16:28.116Z,1.70
2022-10-03T08:19:22.967Z,2.10
2022-10-03T08:22:11.739Z,1.42
2022-10-03T08:24:49.310Z,1.73
2022-10-03T08:27:14.651Z,1.63
2022-10-03T08:30:11.243Z,2.30
2022-10-03T08:32:52.435Z,2.40
2022-10-03T08:35:28.060Z,2.00
2022-10-03T08:38:08.976Z,2.00
2022-10-03T08:40:40.552Z,1.60
2022-10-03T08:43:50.498Z,1.83
2022-10-03T08:46:28.122Z,2.00
2022-10-03T08:49:02.657Z,1.65
2022-10-03T08:51:56.125Z,1.73
2022-10-03T08:54:33.828Z,1.88
2022-10-03T08:57:28.954Z,1.70
2022-10-03T09:00:08.185Z,1.40
2022-10-03T09:03:31.861Z,1.70
2022-10-03T09:06:24.837Z,1.67
2022-10-03T09:09:09.031Z,1.80
2022-10-03T09:12:04.366Z,2.00
2022-10-03T09:14:48.572Z,1.50
2022-10-03T09:17:20.241Z,2.17
2022-10-03T09:20:04.067Z,1.88
2022-10-03T09:22:45.735Z,1.80
2022-10-03T09:25:11.072Z,1.95
2022-10-03T09:28:08.882Z,1.80
2022-10-03T09:30:46.251Z,2.00
2022-10-03T09:33:30.525Z,1.83
2022-10-03T09:36:22.800Z,2.03
2022-10-03T09:38:48.341Z,1.75
2022-10-03T09:41:57.193Z,2.27
2022-10-03T09:44:23.385Z,1.77
2022-10-03T09:47:30.853Z,2.00
2022-10-03T09:50:52.063Z,1.70
2022-10-03T09:53:42.496Z,2.10
2022-10-03T09:56:05.069Z,2.20
2022-10-03T09:58:56.009Z,1.42
2022-10-03T10:01:18.641Z,1.75
2022-10-03T10:03:47.648Z,1.55
2022-10-03T10:06:34.748Z,1.50
2022-10-03T10:09:31.310Z,1.40
2022-10-03T10:12:05.801Z,1.17
2022-10-03T10:14:46.587Z,1.60
2022-10-03T10:17:27.566Z,1.60
2022-10-03T10:20:27.261Z,1.20
2022-10-03T10:23:08.035Z,1.70
2022-10-03T10:25:48.926Z,1.40
2022-10-03T10:28:43.378Z,1.50
2022-10-03T10:31:47.652Z,1.10
2022-10-03T10:34:46.968Z,1.73
2022-10-03T10:37:40.651Z,1.40
2022-10-03T10:40:23.566Z,1.30
2022-10-03T10:43:07.471Z,1.30
2022-10-03T10:45:47.012Z,1.40
2022-10-03T10:48:47.054Z,2.22
2022-10-03T10:51:40.392Z,1.40
2022-10-03T10:54:44.402Z,1.40
2022-10-03T10:57:16.048Z,1.70
2022-10-03T10:59:50.740Z,1.70
2022-10-03T11:02:46.865Z,1.50
2022-10-03T11:05:34.647Z,1.67
2022-10-03T11:08:29.939Z,1.70
2022-10-03T11:11:07.196Z,1.50
2022-10-03T11:14:00.885Z,1.40
2022-10-03T11:16:43.329Z,1.40
2022-10-03T11:20:03.691Z,1.30
2022-10-03T11:22:51.020Z,1.35
2022-10-03T11:25:35.215Z,1.40
2022-10-03T11:28:27.286Z,1.90
2022-10-03T11:30:59.012Z,1.20
2022-10-03T11:33:40.431Z,0.90
2022-10-03T11:36:16.320Z,1.10
2022-10-03T11:38:49.233Z,1.20
2022-10-03T11:41:20.600Z,0.98
2022-10-03T11:44:01.714Z,0.80
2022-10-03T11:46:51.294Z,0.90
2022-10-03T11:49:51.369Z,0.88
2022-10-03T11:52:55.436Z,0.80
2022-10-03T11:55:39.799Z,0.98
2022-10-03T11:58:24.123Z,0.93
2022-10-03T12:01:00.147Z,1.07
2022-10-03T12:03:30.101Z,1.20
2022-10-03T12:06:17.943Z,1.30
2022-10-03T12:08:55.463Z,1.10
2022-10-03T12:11:28.154Z,1.10
2022-10-03T12:14:11.474Z,1.13
2022-10-03T12:17:00.107Z,1.30
2022-10-03T12:19:53.732Z,1.30
2022-10-03T12:22:37.396Z,1.13
2022-10-03T12:25:24.081Z,1.23
2022-10-03T12:28:01.964Z,1.20
2022-10-03T12:30:25.692Z,1.02
2022-10-03T12:33:12.915Z,1.05
2022-10-03T12:35:50.659Z,1.20
2022-10-03T12:38:34.684Z,2.08
2022-10-03T12:41:42.968Z,1.10
2022-10-03T12:44:23.542Z,1.17
2022-10-03T12:47:43.980Z,1.30
2022-10-03T12:50:30.103Z,1.20
2022-10-03T12:53:17.691Z,1.15
2022-10-03T12:55:45.366Z,1.50
2022-10-03T12:58:16.520Z,1.92
2022-10-03T13:00:55.868Z,1.02
2022-10-03T13:03:38.608Z,1.10
2022-10-03T13:07:02.236Z,1.20
2022-10-03T13:10:03.738Z,1.20
2022-10-03T13:12:40.203Z,1.40
2022-10-03T13:15:36.772Z,1.50
2022-10-03T13:18:36.471Z,1.35
2022-10-03T13:21:04.667Z,1.80
2022-10-03T13:23:47.326Z,1.60
2022-10-03T13:26:19.917Z,1.80
2022-10-03T13:29:12.761Z,1.35
2022-10-03T13:31:39.550Z,0.90
2022-10-03T13:34:12.797Z,1.20
2022-10-03T13:36:44.820Z,0.97
2022-10-03T13:39:13.223Z,0.80
2022-10-03T13:42:00.493Z,0.80
2022-10-03T13:44:33.987Z,0.98
2022-10-03T13:47:42.419Z,0.98
2022-10-03T13:50:15.336Z,1.40
2022-10-03T13:53:02.647Z,1.40
2022-10-03T13:55:44.243Z,1.30
2022-10-03T13:58:19.434Z,1.00
2022-10-03T14:01:00.787Z,1.10
2022-10-03T14:03:31.088Z,1.20
2022-10-03T14:06:51.796Z,1.17
2022-10-03T14:09:50.787Z,1.10
2022-10-03T14:12:55.752Z,0.90
2022-10-03T14:15:36.902Z,1.20
2022-10-03T14:18:23.184Z,1.00
2022-10-03T14:21:13.260Z,1.30
2022-10-03T14:23:40.244Z,1.00
2022-10-03T14:26:25.138Z,0.90
2022-10-03T14:28:47.874Z,0.95
2022-10-03T14:31:20.968Z,1.13
2022-10-03T14:34:08.316Z,0.98
2022-10-03T14:36:49.903Z,0.98
2022-10-03T14:39:48.685Z,0.98
2022-10-03T14:42:30.699Z,1.17
2022-10-03T14:45:00.383Z,0.90
2022-10-03T14:47:24.061Z,0.95
2022-10-03T14:49:59.385Z,1.10
2022-10-03T14:52:27.013Z,1.27
2022-10-03T14:54:52.387Z,1.40
2022-10-03T14:57:47.910Z,1.10
2022-10-03T15:00:45.925Z,1.35
2022-10-03T15:03:17.517Z,1.10
2022-10-03T15:05:57.169Z,1.00
2022-10-03T15:08:20.479Z,1.05
2022-10-03T15:10:44.006Z,0.90
2022-10-03T15:13:11.484Z,1.00
2022-10-03T15:15:41.755Z,1.00
2022-10-03T15:18:07.419Z,1.20
2022-10-03T15:20:36.981Z,1.30
2022-10-03T15:23:01.675Z,1.37
2022-10-03T15:25:33.763Z,1.50
2022-10-03T15:28:00.333Z,1.48
2022-10-03T15:30:31.457Z,1.50
2022-10-03T15:33:04.117Z,1.83
2022-10-03T15:35:29.267Z,1.40
2022-10-03T15:37:52.604Z,1.48
2022-10-03T15:40:32.582Z,1.30
2022-10-03T15:43:04.001Z,1.50
2022-10-03T15:45:29.480Z,1.33
2022-10-03T15:47:52.969Z,1.40
2022-10-03T15:50:19.991Z,1.30
2022-10-03T15:52:46.774Z,1.50
2022-10-03T15:55:42.683Z,1.10
2022-10-03T15:58:14.221Z,1.02
2022-10-03T16:00:37.921Z,0.93
2022-10-03T16:03:41.747Z,0.90
2022-10-03T16:06:17.481Z,1.00
2022-10-03T16:08:57.055Z,1.38
2022-10-03T16:11:24.984Z,1.15
2022-10-03T16:14:01.207Z,1.10
2022-10-03T16:16:41.238Z,1.20
2022-10-03T16:19:32.609Z,1.20
2022-10-03T16:22:30.342Z,1.30
2022-10-03T16:25:05.161Z,1.40
2022-10-03T16:27:31.696Z,1.10
2022-10-03T16:30:16.066Z,1.65
2022-10-03T16:32:46.266Z,1.70
2022-10-03T16:35:30.698Z,1.60
2022-10-03T16:37:53.961Z,1.33
2022-10-03T16:40:22.203Z,1.30
2022-10-03T16:42:46.435Z,1.25
2022-10-03T16:45:36.726Z,1.08
2022-10-03T16:48:22.643Z,1.20
2022-10-03T16:50:52.064Z,1.30
2022-10-03T16:53:16.468Z,1.20
2022-10-03T16:55:47.601Z,1.35
2022-10-03T16:58:18.990Z,1.73
2022-10-03T17:01:25.200Z,1.88
2022-10-03T17:03:48.283Z,1.63
2022-10-03T17:06:26.402Z,1.60
2022-10-03T17:08:53.022Z,1.88
2022-10-03T17:11:19.591Z,2.08
2022-10-03T17:13:52.510Z,1.50
2022-10-03T17:16:44.059Z,1.73
2022-10-03T17:19:31.715Z,1.97
2022-10-03T17:22:00.494Z,1.85
2022-10-03T17:25:03.588Z,1.70
2022-10-03T17:27:50.742Z,1.23
2022-10-03T17:30:45.780Z,2.00
2022-10-03T17:33:23.101Z,1.80
2022-10-03T17:35:59.078Z,1.90
2022-10-03T17:38:50.483Z,1.50
2022-10-03T17:41:45.579Z,2.42
2022-10-03T17:44:12.143Z,1.55
2022-10-03T17:47:05.229Z,1.83
2022-10-03T17:50:11.172Z,1.75
2022-10-03T17:52:39.080Z,2.20
2022-10-03T17:55:04.535Z,1.80
2022-10-03T17:57:38.527Z,1.88
2022-10-03T18:00:07.388Z,2.17
2022-10-03T18:02:56.456Z,1.50
2022-10-03T18:05:24.082Z,1.80
2022-10-03T18:07:50.912Z,1.60
2022-10-03T18:10:29.136Z,1.85
2022-10-03T18:12:55.782Z,1.80
2022-10-03T18:15:42.525Z,2.13
2022-10-03T18:18:44.782Z,1.95
2022-10-03T18:21:37.811Z,1.60
2022-10-03T18:24:20.825Z,1.90
2022-10-03T18:26:46.610Z,2.10
2022-10-03T18:29:33.346Z,1.65
2022-10-03T18:32:02.160Z,2.00
2022-10-03T18:34:34.519Z,1.90
2022-10-03T18:37:01.250Z,1.90
2022-10-03T18:39:27.795Z,1.80
2022-10-03T18:41:58.561Z,2.20
2022-10-03T18:44:24.245Z,2.03
2022-10-03T18:46:51.775Z,1.80
2022-10-03T18:49:35.047Z,2.10
2022-10-03T18:52:03.999Z,1.63
2022-10-03T18:54:43.985Z,2.03
2022-10-03T18:57:06.796Z,1.80
2022-10-03T18:59:35.545Z,1.65
2022-10-03T19:02:01.931Z,1.60
2022-10-03T19:04:24.646Z,1.60
2022-10-03T19:06:52.697Z,1.85
2022-10-03T19:09:26.932Z,1.92
2022-10-03T19:11:49.407Z,1.80
2022-10-03T19:14:17.382Z,1.70
2022-10-03T19:17:00.486Z,1.47
2022-10-03T19:19:49.205Z,1.50
2022-10-03T19:22:15.755Z,1.60
2022-10-03T19:24:57.972Z,1.40
2022-10-03T19:27:40.084Z,1.27
2022-10-03T19:30:08.561Z,1.50
2022-10-03T19:33:07.759Z,1.40
2022-10-03T19:35:32.382Z,1.50
2022-10-03T19:38:06.749Z,1.45
2022-10-03T19:40:36.453Z,1.48
2022-10-03T19:43:27.044Z,1.30
2022-10-03T19:45:58.262Z,1.50
2022-10-03T19:48:22.820Z,1.40
2022-10-03T19:50:45.684Z,1.40
2022-10-03T19:53:16.182Z,1.42
2022-10-03T19:55:40.902Z,1.37
2022-10-03T19:58:11.891Z,1.30
2022-10-03T20:00:37.328Z,1.50
2022-10-03T20:03:24.392Z,1.30
2022-10-03T20:06:14.769Z,1.35
2022-10-03T20:08:44.262Z,1.43
2022-10-03T20:11:44.200Z,1.50
2022-10-03T20:14:07.696Z,1.60
2022-10-03T20:16:36.179Z,1.60
2022-10-03T20:19:07.786Z,1.70
2022-10-03T20:21:33.441Z,1.70
2022-10-03T20:23:57.991Z,1.92
2022-10-03T20:26:48.986Z,2.08
2022-10-03T20:29:28.519Z,2.30
2022-10-03T20:31:52.028Z,2.60
2022-10-03T20:34:17.108Z,2.13
2022-10-03T20:36:57.912Z,2.40
2022-10-03T20:39:27.712Z,2.20
2022-10-03T20:41:59.563Z,2.40
2022-10-03T20:44:51.239Z,2.25
2022-10-03T20:47:33.546Z,2.27
2022-10-03T20:50:01.219Z,2.58
2022-10-03T20:52:25.558Z,2.53
2022-10-03T20:54:57.976Z,2.75
2022-10-03T20:57:41.732Z,2.33
2022-10-03T21:00:24.870Z,2.63
2022-10-03T21:03:07.756Z,2.60
2022-10-03T21:05:36.623Z,2.33
2022-10-03T21:08:02.669Z,2.17
2022-10-03T21:10:27.864Z,2.65
2022-10-03T21:12:54.886Z,2.87
2022-10-03T21:15:42.988Z,2.65
2022-10-03T21:18:07.544Z,2.67
2022-10-03T21:20:38.034Z,2.70
2022-10-03T21:23:06.855Z,2.90
2022-10-03T21:25:34.083Z,2.97
2022-10-03T21:27:57.950Z,2.75
2022-10-03T21:30:30.914Z,3.22
2022-10-03T21:33:00.923Z,2.88
2022-10-03T21:35:31.089Z,2.80
2022-10-03T21:38:04.079Z,2.80
2022-10-03T21:41:04.084Z,2.85
2022-10-03T21:43:50.638Z,2.22
2022-10-03T21:46:28.948Z,2.60
2022-10-03T21:49:19.239Z,2.55
2022-10-03T21:51:48.197Z,2.33
2022-10-03T21:54:29.285Z,2.28
2022-10-03T21:57:04.679Z,2.28
2022-10-03T21:59:42.213Z,2.33
2022-10-03T22:02:24.741Z,2.42
2022-10-03T22:05:16.348Z,1.90
2022-10-03T22:07:41.511Z,2.13
2022-10-03T22:10:17.886Z,2.20
2022-10-03T22:13:07.152Z,2.45
2022-10-03T22:16:22.012Z,2.30
2022-10-03T22:19:12.571Z,2.20
2022-10-03T22:21:58.991Z,1.90
2022-10-03T22:24:39.068Z,2.40
2022-10-03T22:27:15.309Z,2.00
2022-10-03T22:30:01.767Z,2.22
2022-10-03T22:32:28.814Z,1.73
2022-10-03T22:35:13.135Z,2.00
2022-10-03T22:37:36.312Z,1.95
2022-10-03T22:40:01.293Z,1.90
2022-10-03T22:42:25.161Z,2.00
2022-10-03T22:44:51.498Z,1.87
2022-10-03T22:47:30.180Z,2.00
2022-10-03T22:49:59.068Z,2.10
2022-10-03T22:52:26.346Z,2.10
2022-10-03T22:54:52.556Z,2.00
2022-10-03T22:57:15.768Z,2.00
2022-10-03T23:00:02.026Z,2.17
2022-10-03T23:02:36.322Z,2.10
2022-10-03T23:05:04.272Z,1.80
2022-10-03T23:07:49.321Z,2.20
2022-10-03T23:13:25.077Z,2.22
2022-10-03T23:15:54.389Z,2.03
2022-10-03T23:18:39.135Z,1.80
2022-10-03T23:21:08.088Z,1.63
2022-10-03T23:23:39.491Z,2.00
2022-10-03T23:26:19.935Z,1.70
2022-10-03T23:28:59.392Z,2.17
2022-10-03T23:31:50.963Z,2.10
2022-10-03T23:34:36.481Z,1.90
2022-10-03T23:37:01.864Z,2.05
2022-10-03T23:39:35.712Z,2.20
2022-10-03T23:42:02.944Z,2.10
2022-10-03T23:44:49.938Z,1.93
2022-10-03T23:47:16.278Z,1.95
2022-10-03T23:49:41.716Z,1.95
2022-10-03T23:52:05.672Z,2.10
2022-10-03T23:54:28.575Z,2.22
2022-10-03T23:56:51.265Z,1.90
2022-10-03T23:59:13.891Z,2.17
